createdAt,value
2022-07-25T00:02:07.459Z,100316.81
2022-07-25T00:04:37.131Z,100317.47
2022-07-25T00:07:09.066Z,100315.94
2022-07-25T00:09:36.889Z,100316.13
2022-07-25T00:12:11.628Z,100318.13
2022-07-25T00:14:40.247Z,100316.47
2022-07-25T00:17:08.474Z,100315.47
2022-07-25T00:19:36.254Z,100310.06
2022-07-25T00:22:03.867Z,100309.59
2022-07-25T00:24:32.373Z,100319.50
2022-07-25T00:27:00.034Z,100321.53
2022-07-25T00:29:28.477Z,100320.53
2022-07-25T00:31:56.023Z,100322.88
2022-07-25T00:34:23.691Z,100318.16
2022-07-25T00:36:52.709Z,100322.88
2022-07-25T00:39:22.195Z,100324.75
2022-07-25T00:41:49.778Z,100323.88
2022-07-25T00:44:28.174Z,100317.16
2022-07-25T00:46:56.747Z,100315.13
2022-07-25T00:49:25.797Z,100320.69
2022-07-25T00:51:54.434Z,100316.13
2022-07-25T00:54:22.979Z,100315.47
2022-07-25T00:56:50.719Z,100316.66
2022-07-25T00:59:19.162Z,100322.22
2022-07-25T01:01:48.654Z,100322.88
2022-07-25T01:04:17.533Z,100323.56
2022-07-25T01:06:46.183Z,100323.75
2022-07-25T01:09:14.166Z,100313.44
2022-07-25T01:11:41.939Z,100321.22
2022-07-25T01:14:09.920Z,100325.59
2022-07-25T01:16:37.838Z,100311.13
2022-07-25T01:19:05.584Z,100313.13
2022-07-25T01:21:33.320Z,100323.38
2022-07-25T01:24:01.115Z,100325.06
2022-07-25T01:26:30.541Z,100320.22
2022-07-25T01:28:58.464Z,100315.97
2022-07-25T01:31:27.262Z,100325.59
2022-07-25T01:33:55.189Z,100319.88
2022-07-25T01:36:22.857Z,100331.84
2022-07-25T01:38:50.641Z,100337.72
2022-07-25T01:41:22.632Z,100326.75
2022-07-25T01:43:50.719Z,100324.22
2022-07-25T01:46:18.402Z,100322.88
2022-07-25T01:48:46.287Z,100323.75
2022-07-25T01:51:14.411Z,100323.88
2022-07-25T01:53:43.112Z,100330.84
2022-07-25T01:56:13.435Z,100323.91
2022-07-25T01:58:42.212Z,100324.91
2022-07-25T02:01:10.023Z,100329.28
2022-07-25T02:03:39.025Z,100334.53
2022-07-25T02:06:08.177Z,100355.56
2022-07-25T02:08:38.225Z,100393.97
2022-07-25T02:11:07.205Z,100389.56
2022-07-25T02:13:37.521Z,100360.28
2022-07-25T02:16:05.798Z,100356.94
2022-07-25T02:18:33.495Z,100365.19
2022-07-25T02:21:01.613Z,100361.97
2022-07-25T02:23:29.372Z,100352.19
2022-07-25T02:25:57.204Z,100349.34
2022-07-25T02:28:24.823Z,100342.44
2022-07-25T02:30:52.587Z,100348.50
2022-07-25T02:33:20.353Z,100352.19
2022-07-25T02:35:48.230Z,100352.53
2022-07-25T02:38:21.434Z,100349.69
2022-07-25T02:40:51.080Z,100341.78
2022-07-25T02:43:19.480Z,100327.63
2022-07-25T02:45:47.774Z,100336.38
2022-07-25T02:48:15.614Z,100333.03
2022-07-25T02:50:43.197Z,100318.53
2022-07-25T02:53:10.916Z,100324.09
2022-07-25T02:55:38.550Z,100316.88
2022-07-25T02:58:07.706Z,100313.66
2022-07-25T03:00:36.078Z,100311.97
2022-07-25T03:03:03.842Z,100310.28
2022-07-25T03:05:31.993Z,100309.78
2022-07-25T03:07:59.584Z,100302.53
2022-07-25T03:10:28.604Z,100313.47
2022-07-25T03:12:56.182Z,100311.81
2022-07-25T03:15:23.819Z,100317.03
2022-07-25T03:17:51.398Z,100318.53
2022-07-25T03:20:19.559Z,100318.19
2022-07-25T03:22:47.213Z,100323.25
2022-07-25T03:25:21.469Z,100327.28
2022-07-25T03:27:51.099Z,100324.94
2022-07-25T03:30:19.872Z,100331.31
2022-07-25T03:32:47.896Z,100324.78
2022-07-25T03:35:16.240Z,100320.91
2022-07-25T03:37:44.049Z,100323.94
2022-07-25T03:40:13.212Z,100326.09
2022-07-25T03:42:41.603Z,100325.44
2022-07-25T03:45:10.217Z,100322.56
2022-07-25T03:47:38.519Z,100323.75
2022-07-25T03:50:06.843Z,100325.94
2022-07-25T03:52:34.492Z,100324.59
2022-07-25T03:55:02.036Z,100323.59
2022-07-25T03:57:29.886Z,100327.97
2022-07-25T03:59:57.487Z,100334.19
2022-07-25T04:02:25.213Z,100322.41
2022-07-25T04:04:53.070Z,100323.75
2022-07-25T04:07:22.076Z,100324.94
2022-07-25T04:09:49.736Z,100337.72
2022-07-25T04:12:17.655Z,100340.78
2022-07-25T04:14:45.778Z,100339.41
2022-07-25T04:17:15.049Z,100347.50
2022-07-25T04:19:42.923Z,100342.09
2022-07-25T04:22:11.910Z,100343.78
2022-07-25T04:24:40.018Z,100349.50
2022-07-25T04:27:07.656Z,100343.13
2022-07-25T04:29:35.367Z,100338.06
2022-07-25T04:32:03.094Z,100337.06
2022-07-25T04:34:30.938Z,100327.13
2022-07-25T04:36:58.478Z,100334.38
2022-07-25T04:39:26.291Z,100337.91
2022-07-25T04:41:53.949Z,100330.66
2022-07-25T04:44:21.760Z,100333.69
2022-07-25T04:46:49.296Z,100336.03
2022-07-25T04:49:17.214Z,100323.44
2022-07-25T04:51:45.349Z,100328.63
2022-07-25T04:54:13.101Z,100328.97
2022-07-25T04:56:41.122Z,100325.94
2022-07-25T04:59:08.743Z,100324.44
2022-07-25T05:01:37.162Z,100331.00
2022-07-25T05:04:05.785Z,100319.22
2022-07-25T05:06:33.774Z,100323.25
2022-07-25T05:09:02.163Z,100325.28
2022-07-25T05:11:30.128Z,100329.47
2022-07-25T05:14:00.367Z,100329.66
2022-07-25T05:16:28.149Z,100328.97
2022-07-25T05:18:58.255Z,100320.22
2022-07-25T05:21:26.291Z,100323.06
2022-07-25T05:23:54.031Z,100332.69
2022-07-25T05:26:21.848Z,100333.50
2022-07-25T05:28:49.739Z,100326.78
2022-07-25T05:31:17.410Z,100317.69
2022-07-25T05:33:45.400Z,100322.91
2022-07-25T05:36:14.447Z,100322.72
2022-07-25T05:38:42.208Z,100327.94
2022-07-25T05:41:09.916Z,100325.88
2022-07-25T05:43:38.188Z,100317.31
2022-07-25T05:46:06.364Z,100325.22
2022-07-25T05:48:34.090Z,100323.91
2022-07-25T05:51:01.681Z,100320.03
2022-07-25T05:53:29.641Z,100312.47
2022-07-25T05:55:57.380Z,100305.25
2022-07-25T05:58:29.710Z,100307.44
2022-07-25T06:00:58.743Z,100305.25
2022-07-25T06:03:31.678Z,100304.91
2022-07-25T06:06:00.071Z,100299.19
2022-07-25T06:08:33.987Z,100302.69
2022-07-25T06:11:04.128Z,100299.50
2022-07-25T06:13:33.055Z,100294.31
2022-07-25T06:16:04.055Z,100289.22
2022-07-25T06:18:32.094Z,100295.00
2022-07-25T06:20:59.932Z,100300.69
2022-07-25T06:23:27.989Z,100294.31
2022-07-25T06:25:55.604Z,100303.31
2022-07-25T06:28:24.071Z,100295.41
2022-07-25T06:30:51.724Z,100298.88
2022-07-25T06:33:21.023Z,100299.69
2022-07-25T06:35:49.140Z,100294.31
2022-07-25T06:38:16.762Z,100284.72
2022-07-25T06:40:44.684Z,100287.13
2022-07-25T06:43:12.554Z,100287.13
2022-07-25T06:45:40.191Z,100278.72
2022-07-25T06:48:07.719Z,100284.81
2022-07-25T06:50:36.907Z,100291.22
2022-07-25T06:53:04.533Z,100297.44
2022-07-25T06:55:32.217Z,100291.88
2022-07-25T06:57:59.907Z,100294.59
2022-07-25T07:00:27.673Z,100298.31
2022-07-25T07:02:58.153Z,100291.25
2022-07-25T07:05:28.523Z,100299.19
2022-07-25T07:07:57.371Z,100294.28
2022-07-25T07:10:26.163Z,100281.84
2022-07-25T07:13:12.566Z,100276.22
2022-07-25T07:15:45.608Z,100305.59
2022-07-25T07:18:14.018Z,100314.69
2022-07-25T07:20:51.798Z,100324.75
2022-07-25T07:23:19.691Z,100321.94
2022-07-25T07:25:48.363Z,100319.59
2022-07-25T07:28:16.996Z,100314.25
2022-07-25T07:31:14.713Z,100311.41
2022-07-25T07:33:35.509Z,100307.56
2022-07-25T07:36:03.903Z,100312.47
2022-07-25T07:38:31.655Z,100311.13
2022-07-25T07:40:59.364Z,100308.47
2022-07-25T07:43:29.869Z,100306.75
2022-07-25T07:46:01.970Z,100302.38
2022-07-25T07:48:31.097Z,100303.53
2022-07-25T07:51:00.013Z,100305.56
2022-07-25T07:53:46.827Z,100298.97
2022-07-25T07:56:19.294Z,100297.28
2022-07-25T07:58:47.326Z,100297.97
2022-07-25T08:01:15.383Z,100307.69
2022-07-25T08:03:43.320Z,100296.53
2022-07-25T08:06:10.943Z,100295.47
2022-07-25T08:08:39.183Z,100294.78
2022-07-25T08:11:11.263Z,100294.50
2022-07-25T08:13:41.909Z,100300.53
2022-07-25T08:16:12.015Z,100299.88
2022-07-25T08:18:40.540Z,100299.69
2022-07-25T08:21:09.543Z,100308.28
2022-07-25T08:23:39.267Z,100296.78
2022-07-25T08:26:07.745Z,100297.47
2022-07-25T08:28:35.543Z,100297.94
2022-07-25T08:31:03.745Z,100297.03
2022-07-25T08:33:32.463Z,100291.59
2022-07-25T08:36:00.267Z,100298.19
2022-07-25T08:38:29.496Z,100300.47
2022-07-25T08:40:58.396Z,100296.78
2022-07-25T08:43:27.290Z,100296.91
2022-07-25T08:45:55.683Z,100296.72
2022-07-25T08:48:25.962Z,100283.88
2022-07-25T08:50:57.243Z,100280.97
2022-07-25T08:53:33.057Z,100277.22
2022-07-25T08:56:10.702Z,100285.25
2022-07-25T08:58:44.219Z,100266.56
2022-07-25T09:01:13.372Z,100268.50
2022-07-25T09:03:45.644Z,100265.50
2022-07-25T09:06:21.127Z,100264.41
2022-07-25T09:08:57.908Z,100276.09
2022-07-25T09:11:31.488Z,100264.38
2022-07-25T09:14:04.837Z,100258.78
2022-07-25T09:16:40.076Z,100257.19
2022-07-25T09:19:21.445Z,100256.41
2022-07-25T09:21:59.677Z,100261.81
2022-07-25T09:24:28.014Z,100254.19
2022-07-25T09:26:58.317Z,100265.56
2022-07-25T09:29:31.493Z,100260.50
2022-07-25T09:32:00.643Z,100261.81
2022-07-25T09:34:43.385Z,100261.06
2022-07-25T09:37:12.865Z,100258.41
2022-07-25T09:39:46.844Z,100259.84
2022-07-25T09:42:36.527Z,100262.63
2022-07-25T09:45:07.891Z,100260.25
2022-07-25T09:47:37.545Z,100259.78
2022-07-25T09:50:07.214Z,100260.41
2022-07-25T09:52:37.212Z,100255.47
2022-07-25T09:55:09.587Z,100245.06
2022-07-25T09:57:38.623Z,100234.06
2022-07-25T10:00:08.318Z,100231.06
2022-07-25T10:02:54.918Z,100224.63
2022-07-25T10:05:43.965Z,100221.19
2022-07-25T10:08:12.478Z,100220.66
2022-07-25T10:10:42.595Z,100218.28
2022-07-25T10:13:28.378Z,100219.56
2022-07-25T10:15:56.087Z,100220.56
2022-07-25T10:18:28.145Z,100217.66
2022-07-25T10:21:25.119Z,100218.75
2022-07-25T10:24:08.601Z,100214.06
2022-07-25T10:26:39.995Z,100210.53
2022-07-25T10:29:10.065Z,100208.16
2022-07-25T10:31:47.872Z,100210.09
2022-07-25T10:34:28.077Z,100219.56
2022-07-25T10:36:57.449Z,100244.50
2022-07-25T10:39:25.181Z,100255.41
2022-07-25T10:42:00.390Z,100250.97
2022-07-25T10:44:39.512Z,100244.72
2022-07-25T10:47:09.628Z,100243.16
2022-07-25T10:50:00.279Z,100233.09
2022-07-25T10:52:30.546Z,100221.31
2022-07-25T10:55:01.036Z,100215.91
2022-07-25T10:57:31.954Z,100197.34
2022-07-25T11:00:08.298Z,100192.25
2022-07-25T11:02:36.510Z,100190.06
2022-07-25T11:05:04.944Z,100197.50
2022-07-25T11:07:38.712Z,100186.00
2022-07-25T11:10:07.006Z,100184.34
2022-07-25T11:12:38.081Z,100173.94
2022-07-25T11:15:08.499Z,100173.25
2022-07-25T11:17:49.582Z,100168.13
2022-07-25T11:20:18.268Z,100161.34
2022-07-25T11:22:54.290Z,100169.25
2022-07-25T11:25:23.479Z,100165.69
2022-07-25T11:27:58.139Z,100171.75
2022-07-25T11:30:29.132Z,100165.94
2022-07-25T11:33:01.789Z,100173.19
2022-07-25T11:35:32.449Z,100168.41
2022-07-25T11:38:02.462Z,100168.13
2022-07-25T11:40:32.826Z,100161.50
2022-07-25T11:43:01.374Z,100157.44
2022-07-25T11:45:33.592Z,100150.81
2022-07-25T11:48:07.622Z,100151.59
2022-07-25T11:50:39.223Z,100156.38
2022-07-25T11:53:16.486Z,100151.84
2022-07-25T11:55:44.950Z,100150.06
2022-07-25T11:58:13.915Z,100147.94
2022-07-25T12:00:50.799Z,100156.66
2022-07-25T12:03:23.323Z,100146.13
2022-07-25T12:05:51.317Z,100145.78
2022-07-25T12:08:23.195Z,100151.69
2022-07-25T12:10:51.636Z,100144.25
2022-07-25T12:13:27.411Z,100141.81
2022-07-25T12:16:00.357Z,100146.44
2022-07-25T12:18:28.968Z,100159.53
2022-07-25T12:20:56.583Z,100161.03
2022-07-25T12:23:24.577Z,100159.44
2022-07-25T12:25:52.291Z,100165.50
2022-07-25T12:28:19.987Z,100155.19
2022-07-25T12:30:54.472Z,100159.97
2022-07-25T12:33:24.717Z,100138.31
2022-07-25T12:35:52.500Z,100135.41
2022-07-25T12:38:20.081Z,100132.88
2022-07-25T12:40:48.400Z,100132.66
2022-07-25T12:43:16.134Z,100121.81
2022-07-25T12:45:44.851Z,100129.94
2022-07-25T12:48:15.283Z,100121.50
2022-07-25T12:50:43.689Z,100133.75
2022-07-25T12:53:13.398Z,100127.16
2022-07-25T12:55:41.463Z,100126.38
2022-07-25T12:58:09.311Z,100123.91
2022-07-25T13:00:37.979Z,100118.66
2022-07-25T13:03:05.724Z,100108.84
2022-07-25T13:05:33.965Z,100112.66
2022-07-25T13:08:05.166Z,100107.41
2022-07-25T13:10:33.494Z,100109.47
2022-07-25T13:13:01.117Z,100109.22
2022-07-25T13:15:30.388Z,100118.47
2022-07-25T13:17:58.696Z,100118.88
2022-07-25T13:20:26.508Z,100123.91
2022-07-25T13:22:54.291Z,100118.06
2022-07-25T13:25:22.079Z,100123.69
2022-07-25T13:27:50.119Z,100121.38
2022-07-25T13:30:17.927Z,100117.22
2022-07-25T13:32:45.596Z,100120.56
2022-07-25T13:35:17.697Z,100116.59
2022-07-25T13:37:48.397Z,100119.50
2022-07-25T13:40:16.176Z,100119.22
2022-07-25T13:42:43.828Z,100120.72
2022-07-25T13:45:12.115Z,100124.31
2022-07-25T13:47:40.039Z,100127.50
2022-07-25T13:50:08.303Z,100116.56
2022-07-25T13:52:36.172Z,100111.13
2022-07-25T13:55:04.040Z,100118.72
2022-07-25T13:57:33.350Z,100122.94
2022-07-25T14:00:01.179Z,100118.88
2022-07-25T14:02:30.905Z,100119.50
2022-07-25T14:05:03.459Z,100123.63
2022-07-25T14:07:32.573Z,100127.94
2022-07-25T14:10:00.943Z,100120.22
2022-07-25T14:12:28.833Z,100114.81
2022-07-25T14:15:00.493Z,100122.94
2022-07-25T14:17:30.599Z,100120.56
2022-07-25T14:19:58.405Z,100126.16
2022-07-25T14:22:26.578Z,100132.00
2022-07-25T14:24:54.700Z,100146.31
2022-07-25T14:27:22.310Z,100137.00
2022-07-25T14:29:49.935Z,100135.13
2022-07-25T14:32:17.765Z,100131.19
2022-07-25T14:34:45.672Z,100127.69
2022-07-25T14:37:13.474Z,100126.75
2022-07-25T14:39:41.695Z,100122.38
2022-07-25T14:42:11.755Z,100135.06
2022-07-25T14:44:40.230Z,100130.50
2022-07-25T14:47:12.325Z,100132.28
2022-07-25T14:49:40.676Z,100134.56
2022-07-25T14:52:11.494Z,100124.56
2022-07-25T14:54:41.046Z,100121.03
2022-07-25T14:57:09.673Z,100130.81
2022-07-25T14:59:38.879Z,100119.09
2022-07-25T15:02:07.538Z,100124.19
2022-07-25T15:04:35.207Z,100120.75
2022-07-25T15:07:03.243Z,100123.28
2022-07-25T15:09:31.004Z,100132.13
2022-07-25T15:11:58.587Z,100130.50
2022-07-25T15:14:26.365Z,100129.13
2022-07-25T15:16:55.903Z,100137.03
2022-07-25T15:19:23.884Z,100128.31
2022-07-25T15:21:54.630Z,100139.72
2022-07-25T15:24:27.162Z,100139.53
2022-07-25T15:26:58.171Z,100140.06
2022-07-25T15:29:25.878Z,100143.91
2022-07-25T15:31:53.824Z,100151.66
2022-07-25T15:34:21.890Z,100150.63
2022-07-25T15:36:49.620Z,100146.56
2022-07-25T15:39:17.345Z,100160.78
2022-07-25T15:41:45.303Z,100150.06
2022-07-25T15:44:15.295Z,100159.50
2022-07-25T15:46:45.166Z,100161.19
2022-07-25T15:49:15.032Z,100158.63
2022-07-25T15:51:45.514Z,100163.59
2022-07-25T15:54:13.313Z,100163.75
2022-07-25T15:56:41.507Z,100157.69
2022-07-25T15:59:10.096Z,100159.59
2022-07-25T16:01:38.761Z,100163.13
2022-07-25T16:04:06.596Z,100165.81
2022-07-25T16:06:36.147Z,100172.00
2022-07-25T16:09:05.026Z,100164.78
2022-07-25T16:11:35.658Z,100159.69
2022-07-25T16:14:03.664Z,100161.66
2022-07-25T16:16:32.166Z,100157.28
2022-07-25T16:19:00.669Z,100155.78
2022-07-25T16:21:28.424Z,100158.47
2022-07-25T16:23:56.262Z,100154.75
2022-07-25T16:26:23.923Z,100158.03
2022-07-25T16:28:55.002Z,100154.66
2022-07-25T16:31:26.696Z,100165.47
2022-07-25T16:33:54.424Z,100157.00
2022-07-25T16:36:22.190Z,100152.97
2022-07-25T16:38:49.827Z,100165.84
2022-07-25T16:41:17.532Z,100154.41
2022-07-25T16:43:45.190Z,100163.06
2022-07-25T16:46:12.817Z,100157.94
2022-07-25T16:48:40.468Z,100166.50
2022-07-25T16:51:08.359Z,100171.59
2022-07-25T16:53:36.611Z,100163.16
2022-07-25T16:56:05.875Z,100167.78
2022-07-25T16:58:34.067Z,100169.78
2022-07-25T17:01:01.834Z,100157.84
2022-07-25T17:03:29.584Z,100155.53
2022-07-25T17:05:57.734Z,100164.28
2022-07-25T17:08:26.463Z,100169.03
2022-07-25T17:10:55.323Z,100171.44
2022-07-25T17:13:23.521Z,100169.47
2022-07-25T17:15:51.393Z,100181.50
2022-07-25T17:18:19.085Z,100170.97
2022-07-25T17:20:47.098Z,100174.41
2022-07-25T17:23:14.818Z,100174.44
2022-07-25T17:25:45.196Z,100175.22
2022-07-25T17:28:16.605Z,100172.56
2022-07-25T17:30:44.534Z,100175.81
2022-07-25T17:33:12.451Z,100175.97
2022-07-25T17:35:40.568Z,100187.59
2022-07-25T17:38:08.345Z,100187.47
2022-07-25T17:40:38.875Z,100201.16
2022-07-25T17:43:06.620Z,100192.03
2022-07-25T17:45:34.521Z,100209.06
2022-07-25T17:48:02.363Z,100197.81
2022-07-25T17:50:30.148Z,100205.25
2022-07-25T17:52:59.717Z,100204.75
2022-07-25T17:55:28.751Z,100211.81
2022-07-25T17:57:56.771Z,100219.59
2022-07-25T18:00:27.487Z,100221.63
2022-07-25T18:02:55.653Z,100224.00
2022-07-25T18:05:23.648Z,100230.41
2022-07-25T18:07:53.701Z,100221.69
2022-07-25T18:10:22.141Z,100225.06
2022-07-25T18:12:50.507Z,100231.16
2022-07-25T18:15:18.253Z,100226.84
2022-07-25T18:17:48.249Z,100225.34
2022-07-25T18:20:19.928Z,100233.63
2022-07-25T18:22:47.858Z,100237.66
2022-07-25T18:25:15.649Z,100241.69
2022-07-25T18:27:48.159Z,100237.66
2022-07-25T18:30:18.986Z,100243.06
2022-07-25T18:32:46.727Z,100254.53
2022-07-25T18:35:14.429Z,100251.66
2022-07-25T18:37:43.709Z,100263.16
2022-07-25T18:40:12.393Z,100268.38
2022-07-25T18:42:41.439Z,100271.22
2022-07-25T18:45:09.814Z,100275.59
2022-07-25T18:47:37.488Z,100266.03
2022-07-25T18:50:06.470Z,100269.41
2022-07-25T18:52:37.559Z,100273.44
2022-07-25T18:55:08.149Z,100272.94
2022-07-25T18:57:36.971Z,100279.16
2022-07-25T19:00:07.407Z,100279.16
2022-07-25T19:02:35.287Z,100273.09
2022-07-25T19:05:03.151Z,100284.47
2022-07-25T19:07:31.434Z,100284.47
2022-07-25T19:09:59.241Z,100278.09
2022-07-25T19:12:27.502Z,100280.78
2022-07-25T19:14:55.710Z,100274.38
2022-07-25T19:17:24.866Z,100263.63
2022-07-25T19:19:55.767Z,100277.41
2022-07-25T19:22:23.959Z,100274.72
2022-07-25T19:24:51.699Z,100274.91
2022-07-25T19:27:19.916Z,100266.66
2022-07-25T19:29:47.898Z,100268.81
2022-07-25T19:32:18.284Z,100279.25
2022-07-25T19:34:46.283Z,100284.28
2022-07-25T19:37:13.995Z,100280.75
2022-07-25T19:39:41.749Z,100276.56
2022-07-25T19:42:10.816Z,100280.28
2022-07-25T19:44:40.402Z,100285.13
2022-07-25T19:47:11.633Z,100284.28
2022-07-25T19:49:40.975Z,100286.13
2022-07-25T19:52:09.884Z,100284.47
2022-07-25T19:54:38.376Z,100282.78
2022-07-25T19:57:07.160Z,100289.13
2022-07-25T19:59:35.233Z,100295.84
2022-07-25T20:02:04.422Z,100295.69
2022-07-25T20:04:33.275Z,100304.94
2022-07-25T20:07:02.471Z,100308.97
2022-07-25T20:09:31.408Z,100309.31
2022-07-25T20:11:59.061Z,100306.09
2022-07-25T20:14:26.723Z,100304.06
2022-07-25T20:16:54.390Z,100311.63
2022-07-25T20:19:22.368Z,100307.56
2022-07-25T20:21:51.371Z,100311.91
2022-07-25T20:24:21.769Z,100309.56
2022-07-25T20:26:49.844Z,100318.97
2022-07-25T20:29:17.521Z,100320.81
2022-07-25T20:31:45.542Z,100314.78
2022-07-25T20:34:14.295Z,100322.00
2022-07-25T20:36:42.856Z,100313.94
2022-07-25T20:39:10.802Z,100314.59
2022-07-25T20:41:39.353Z,100308.78
2022-07-25T20:44:07.380Z,100310.16
2022-07-25T20:46:39.120Z,100304.72
2022-07-25T20:49:09.058Z,100324.72
2022-07-25T20:51:39.871Z,100309.13
2022-07-25T20:54:08.071Z,100312.78
2022-07-25T20:56:35.695Z,100311.75
2022-07-25T20:59:04.334Z,100311.22
2022-07-25T21:01:32.473Z,100311.69
2022-07-25T21:04:04.293Z,100298.41
2022-07-25T21:06:36.776Z,100297.38
2022-07-25T21:09:06.070Z,100301.06
2022-07-25T21:11:35.867Z,100300.00
2022-07-25T21:14:05.268Z,100293.78
2022-07-25T21:16:33.453Z,100294.59
2022-07-25T21:19:01.206Z,100287.59
2022-07-25T21:21:29.347Z,100296.31
2022-07-25T21:23:57.028Z,100290.94
2022-07-25T21:26:24.726Z,100298.00
2022-07-25T21:28:52.537Z,100301.06
2022-07-25T21:31:20.397Z,100293.25
2022-07-25T21:33:48.152Z,100294.81
2022-07-25T21:36:15.751Z,100305.22
2022-07-25T21:38:43.570Z,100305.38
2022-07-25T21:41:11.235Z,100298.38
2022-07-25T21:43:40.615Z,100298.84
2022-07-25T21:46:11.471Z,100303.38
2022-07-25T21:48:58.422Z,100297.78
2022-07-25T21:51:26.344Z,100290.44
2022-07-25T21:54:08.750Z,100287.00
2022-07-25T21:56:37.470Z,100288.78
2022-07-25T21:59:05.614Z,100293.63
2022-07-25T22:01:33.852Z,100299.31
2022-07-25T22:04:01.714Z,100294.97
2022-07-25T22:06:29.575Z,100304.69
2022-07-25T22:09:00.372Z,100302.31
2022-07-25T22:11:42.562Z,100306.47
2022-07-25T22:14:15.911Z,100296.59
2022-07-25T22:16:43.646Z,100301.16
2022-07-25T22:19:12.304Z,100296.78
2022-07-25T22:21:41.608Z,100293.09
2022-07-25T22:24:10.545Z,100281.53
2022-07-25T22:26:38.306Z,100281.69
2022-07-25T22:29:06.758Z,100289.28
2022-07-25T22:31:34.739Z,100290.41
2022-07-25T22:34:02.563Z,100283.38
2022-07-25T22:36:30.496Z,100277.59
2022-07-25T22:38:58.179Z,100281.84
2022-07-25T22:41:25.872Z,100282.69
2022-07-25T22:43:59.017Z,100281.53
2022-07-25T22:46:29.383Z,100283.53
2022-07-25T22:48:58.487Z,100274.25
2022-07-25T22:51:27.864Z,100283.13
2022-07-25T22:53:56.901Z,100279.63
2022-07-25T22:56:25.187Z,100278.22
2022-07-25T22:58:52.925Z,100286.75
2022-07-25T23:01:21.001Z,100285.59
2022-07-25T23:03:50.299Z,100284.03
2022-07-25T23:06:20.352Z,100289.84
2022-07-25T23:08:48.704Z,100285.16
2022-07-25T23:11:17.025Z,100292.13
2022-07-25T23:13:45.279Z,100298.50
2022-07-25T23:16:15.649Z,100296.41
2022-07-25T23:18:43.366Z,100293.66
2022-07-25T23:21:11.687Z,100285.53
2022-07-25T23:23:39.382Z,100285.38
2022-07-25T23:26:06.968Z,100289.59
2022-07-25T23:28:38.351Z,100290.59
2022-07-25T23:31:06.341Z,100293.59
2022-07-25T23:33:34.508Z,100292.75
2022-07-25T23:36:02.127Z,100289.34
2022-07-25T23:38:29.914Z,100282.63
2022-07-25T23:40:57.570Z,100285.16
2022-07-25T23:43:40.181Z,100282.69
2022-07-25T23:46:13.019Z,100285.66
2022-07-25T23:48:41.037Z,100282.09
2022-07-25T23:51:08.762Z,100281.53
2022-07-25T23:53:37.756Z,100275.06
2022-07-25T23:56:05.597Z,100279.66
2022-07-25T23:58:33.572Z,100281.31
